Página principal
METAR-TAF:

METAR-TAF

Aeroportos :

Aeroporto Internacional de Ivato

Antananarivo, Madagáscar

latitude: 18-48S, longitude: 047-29E, altura: 1279 m

Observação actual do tempo

O boletim foi feito há 30 minutos, às 16:00 UTC
Vento 10 kt de sudeste, variando entre este e su-sudeste
Temperatura 19°C
Humidade 78%
Pressão 1022 hPa
Visibilidade 10 km ou mais
Poucas nuvensa uma altura de 1700 ft, Cumulonimbus.
Nuvens fragmentadasa uma altura de 2000 ft

METAR: FMMI 151600Z 13010KT 100V160 9999 FEW017CB BKN020 19/15 Q1022 NOSIG

Hora: 19:30 (16:30 UTC)

Previsão

O boletim foi feito há 5 horas e 30 minutos, às 11:00 UTC
Previsão válida de 15 às 12 UTC a 16 às 18 UTC
Vento 10 kt de es-sudeste
Visibilidade 10 km ou mais
Nuvens fragmentadasa uma altura de 2000 ft
Probabilidade 30% :
Temporariamente
de 15 às 13 UTC a 15 às 16 UTC
trovoada

TAF: FMMI 151100Z 1512/1618 12010KT 9999 BKN020 PROB30 TEMPO 1513/1516 TS

Observações e previsões do tempo de mais de 4000 aeroportos (mensagens METAR e TAF).

As estações disponíveis são os pontos amarelos e vermelhos sobre o mapa.

Mova o rato sobre o mapa para ver o nome da estação.

Depois clique no ponto para visualizar as observações e previsões meteorológicas.

Para alterar o mapa : clique nos botões verdes com uma cruz preta para aumentar o zoom; no botão verde com uma pitada de zoom; ou nas setas verdes para mapas adjacentes.


METAR-TAF: